< < Back
Terminal Aerodrome Forecast


Current Version              Previous Versions:   1  2  3  4  5  6  7  8  9  

Terminal Aerodrome Forecast

368
FTAK31 PAJN 291731
TAFAHN
TAF
PAHN 291731Z 2918/3018 30004KT 6SM -SHRA BR OVC070
      TEMPO 2918/2921 4SM -SHRA BR
     FM292100 31013KT P6SM -SHRA OVC050
     FM301000 31019KT P6SM -SHRA OVC040
     FM301500 31020KT P6SM OVC040
      AMD LTD TO CLD VIS AND WIND=



Latest METAR

488
SAUS70 KWBC 291954
MTRAHN
METAR KAHN 291951Z 03007KT 10SM CLR 32/22 A3009 RMK AO2 SLP181
T03220217


USA.gov is the U.S. government's official web portal to all federal, state and local government web resources and services.